createdAt,value
2018-04-14T00:02:11.634Z,11.63
2018-04-14T00:04:39.979Z,9.63
2018-04-14T00:07:08.274Z,8.97
2018-04-14T00:09:37.327Z,12.93
2018-04-14T00:12:05.734Z,10.20
2018-04-14T00:14:33.993Z,12.03
2018-04-14T00:17:02.281Z,12.17
2018-04-14T00:19:30.559Z,12.80
2018-04-14T00:21:58.853Z,12.60
2018-04-14T00:24:27.216Z,11.60
2018-04-14T00:26:55.603Z,13.20
2018-04-14T00:29:23.875Z,10.57
2018-04-14T00:31:52.173Z,11.43
2018-04-14T00:34:20.536Z,13.27
2018-04-14T00:36:48.833Z,11.80
2018-04-14T00:39:17.857Z,11.40
2018-04-14T00:41:46.183Z,11.53
2018-04-14T00:44:14.451Z,11.80
2018-04-14T00:46:42.839Z,12.30
2018-04-14T00:49:11.878Z,14.67
2018-04-14T00:51:40.211Z,11.03
2018-04-14T00:54:08.590Z,14.47
2018-04-14T00:56:36.859Z,15.17
2018-04-14T00:59:05.157Z,12.90
2018-04-14T01:01:33.523Z,10.40
2018-04-14T01:04:01.815Z,12.20
2018-04-14T01:06:30.091Z,12.80
2018-04-14T01:08:58.398Z,13.80
2018-04-14T01:11:26.725Z,13.00
2018-04-14T01:13:55.017Z,15.77
2018-04-14T01:16:23.294Z,14.03
2018-04-14T01:18:51.591Z,15.10
2018-04-14T01:21:20.672Z,14.03
2018-04-14T01:23:49.047Z,16.53
2018-04-14T01:26:17.422Z,15.53
2018-04-14T01:28:45.708Z,15.90
2018-04-14T01:31:13.986Z,15.57
2018-04-14T01:33:42.279Z,17.00
2018-04-14T01:36:10.547Z,17.40
2018-04-14T01:38:38.940Z,17.90
2018-04-14T01:41:07.235Z,15.80
2018-04-14T01:43:36.270Z,19.43
2018-04-14T01:46:04.643Z,17.70
2018-04-14T01:48:32.915Z,15.03
2018-04-14T01:51:01.215Z,15.07
2018-04-14T01:53:29.611Z,17.23
2018-04-14T01:55:57.911Z,21.73
2018-04-14T01:58:26.951Z,19.03
2018-04-14T02:00:55.260Z,17.60
2018-04-14T02:03:23.633Z,20.43
2018-04-14T02:05:51.940Z,17.27
2018-04-14T02:08:20.998Z,19.67
2018-04-14T02:10:49.308Z,16.03
2018-04-14T02:13:18.366Z,18.03
2018-04-14T02:15:46.663Z,16.93
2018-04-14T02:18:14.944Z,17.60
2018-04-14T02:20:44.747Z,17.67
2018-04-14T02:23:13.111Z,19.90
2018-04-14T02:25:41.425Z,20.47
2018-04-14T02:28:09.716Z,23.20
2018-04-14T02:30:38.094Z,23.77
2018-04-14T02:33:06.438Z,22.67
2018-04-14T02:35:34.702Z,21.30
2018-04-14T02:38:03.002Z,22.10
2018-04-14T02:40:31.276Z,18.70
2018-04-14T02:42:59.582Z,20.27
2018-04-14T02:45:27.864Z,16.20
2018-04-14T02:47:56.167Z,17.73
2018-04-14T02:50:25.252Z,21.60
2018-04-14T02:52:53.539Z,22.73
2018-04-14T02:55:22.578Z,20.80
2018-04-14T02:57:50.877Z,19.20
2018-04-14T03:00:19.137Z,19.43
2018-04-14T03:02:47.545Z,19.90
2018-04-14T03:05:15.820Z,22.77
2018-04-14T03:07:44.125Z,18.70
2018-04-14T03:10:13.174Z,20.87
2018-04-14T03:12:41.579Z,22.10
2018-04-14T03:15:09.837Z,21.70
2018-04-14T03:17:38.907Z,22.70
2018-04-14T03:20:07.183Z,24.57
2018-04-14T03:22:35.486Z,22.07
2018-04-14T03:25:03.755Z,22.00
2018-04-14T03:27:32.103Z,21.40
2018-04-14T03:30:00.371Z,21.70
2018-04-14T03:32:28.645Z,24.13
2018-04-14T03:34:56.938Z,28.50
2018-04-14T03:37:25.208Z,23.13
2018-04-14T03:39:53.507Z,23.63
2018-04-14T03:42:21.783Z,23.67
2018-04-14T03:44:50.158Z,24.57
2018-04-14T03:47:18.414Z,23.67
2018-04-14T03:49:46.739Z,25.27
2018-04-14T03:52:15.008Z,24.17
2018-04-14T03:54:43.366Z,24.60
2018-04-14T03:57:11.641Z,22.47
2018-04-14T03:59:39.936Z,20.87
2018-04-14T04:02:08.212Z,23.77
2018-04-14T04:04:36.575Z,20.10
2018-04-14T04:07:04.838Z,22.70
2018-04-14T04:09:33.134Z,16.80
2018-04-14T04:12:01.411Z,17.20
2018-04-14T04:14:29.715Z,18.00
2018-04-14T04:16:58.761Z,20.53
2018-04-14T04:19:38.899Z,19.43
2018-04-14T04:22:19.099Z,26.40
2018-04-14T04:24:59.370Z,27.10
2018-04-14T04:27:27.838Z,28.10
2018-04-14T04:29:56.136Z,31.00
2018-04-14T04:32:24.440Z,29.00
2018-04-14T04:34:52.715Z,36.23
2018-04-14T04:37:21.012Z,25.57
2018-04-14T04:39:49.292Z,24.40
2018-04-14T04:42:17.607Z,23.80
2018-04-14T04:44:45.868Z,28.27
2018-04-14T04:47:14.978Z,26.47
2018-04-14T04:49:43.248Z,26.40
2018-04-14T04:52:11.551Z,29.03
2018-04-14T04:54:39.827Z,24.67
2018-04-14T04:57:08.188Z,29.13
2018-04-14T04:59:36.450Z,25.43
2018-04-14T05:02:04.751Z,28.00
2018-04-14T05:04:33.027Z,20.50
2018-04-14T05:07:01.324Z,26.60
2018-04-14T05:09:30.392Z,32.23
2018-04-14T05:11:58.781Z,32.07
2018-04-14T05:14:27.066Z,33.43
2018-04-14T05:16:56.147Z,34.03
2018-04-14T05:19:24.418Z,37.73
2018-04-14T05:21:52.717Z,34.90
2018-04-14T05:24:20.998Z,37.97
2018-04-14T05:26:50.056Z,40.50
2018-04-14T05:29:18.374Z,42.10
2018-04-14T05:31:46.643Z,45.17
2018-04-14T05:34:15.012Z,44.50
2018-04-14T05:36:44.795Z,51.30
2018-04-14T05:39:13.205Z,45.77
2018-04-14T05:41:41.473Z,47.00
2018-04-14T05:44:09.781Z,45.47
2018-04-14T05:46:38.049Z,42.93
2018-04-14T05:49:07.114Z,43.00
2018-04-14T05:51:35.398Z,45.23
2018-04-14T05:54:03.717Z,41.77
2018-04-14T05:56:32.758Z,45.63
2018-04-14T05:59:01.058Z,38.70
2018-04-14T06:01:29.376Z,45.57
2018-04-14T06:03:59.185Z,46.80
2018-04-14T06:06:27.476Z,44.83
2018-04-14T06:08:56.595Z,38.20
2018-04-14T06:11:25.632Z,37.57
2018-04-14T06:13:53.945Z,34.87
2018-04-14T06:16:22.323Z,37.70
2018-04-14T06:18:50.610Z,40.97
2018-04-14T06:21:18.878Z,35.23
2018-04-14T06:23:47.972Z,39.30
2018-04-14T06:26:16.444Z,34.57
2018-04-14T06:28:44.827Z,39.57
2018-04-14T06:31:13.090Z,38.90
2018-04-14T06:33:41.391Z,37.43
2018-04-14T06:36:09.661Z,35.10
2018-04-14T06:38:37.996Z,32.03
2018-04-14T06:41:06.305Z,36.90
2018-04-14T06:43:34.588Z,42.00
2018-04-14T06:46:02.965Z,39.03
2018-04-14T06:48:31.242Z,42.30
2018-04-14T06:50:59.629Z,42.67
2018-04-14T06:53:28.005Z,40.20
2018-04-14T06:55:56.342Z,48.83
2018-04-14T06:58:24.599Z,45.03
2018-04-14T07:00:53.669Z,49.87
2018-04-14T07:03:21.949Z,53.27
2018-04-14T07:05:50.248Z,50.53
2018-04-14T07:08:19.304Z,51.80
2018-04-14T07:10:47.598Z,54.37
2018-04-14T07:13:16.676Z,53.27
2018-04-14T07:15:44.969Z,54.33
2018-04-14T07:18:13.226Z,55.37
2018-04-14T07:20:41.566Z,57.37
2018-04-14T07:23:10.604Z,52.73
2018-04-14T07:25:38.895Z,52.13
2018-04-14T07:28:07.163Z,50.40
2018-04-14T07:30:36.234Z,50.23
2018-04-14T07:33:04.507Z,56.30
2018-04-14T07:35:32.801Z,48.57
2018-04-14T07:38:01.091Z,47.40
2018-04-14T07:40:29.567Z,48.00
2018-04-14T07:42:57.847Z,49.33
2018-04-14T07:45:26.148Z,49.97
2018-04-14T07:47:54.414Z,57.47
2018-04-14T07:50:22.997Z,46.03
2018-04-14T07:52:51.267Z,53.97
2018-04-14T07:55:20.300Z,48.30
2018-04-14T07:57:49.377Z,49.33
2018-04-14T08:00:17.732Z,53.67
2018-04-14T08:02:46.025Z,52.50
2018-04-14T08:05:14.285Z,50.90
2018-04-14T08:07:42.671Z,51.30
2018-04-14T08:10:10.943Z,51.77
2018-04-14T08:12:39.316Z,52.53
2018-04-14T08:15:07.604Z,50.60
2018-04-14T08:17:35.885Z,53.60
2018-04-14T08:20:04.243Z,53.47
2018-04-14T08:22:32.556Z,51.00
2018-04-14T08:25:01.636Z,50.17
2018-04-14T08:27:30.111Z,52.40
2018-04-14T08:29:58.375Z,52.57
2018-04-14T08:32:26.667Z,55.20
2018-04-14T08:34:54.941Z,58.30
2018-04-14T08:37:23.257Z,60.30
2018-04-14T08:39:51.520Z,58.00
2018-04-14T08:42:20.178Z,52.17
2018-04-14T08:44:48.460Z,54.83
2018-04-14T08:47:16.761Z,47.60
2018-04-14T08:49:45.036Z,46.77
2018-04-14T08:52:13.312Z,52.30
2018-04-14T08:54:41.611Z,59.67
2018-04-14T08:57:10.665Z,56.47
2018-04-14T08:59:38.964Z,49.47
2018-04-14T09:02:07.245Z,54.50
2018-04-14T09:04:35.599Z,55.73
2018-04-14T09:07:03.866Z,53.17
2018-04-14T09:09:32.273Z,52.27
2018-04-14T09:12:00.641Z,53.30
2018-04-14T09:14:28.939Z,52.33
2018-04-14T09:16:57.282Z,48.47
2018-04-14T09:19:25.693Z,53.40
2018-04-14T09:21:53.963Z,51.63
2018-04-14T09:24:22.331Z,51.50
2018-04-14T09:26:50.602Z,57.20
2018-04-14T09:29:19.052Z,51.37
2018-04-14T09:31:47.319Z,43.27
2018-04-14T09:34:15.680Z,45.20
2018-04-14T09:36:44.708Z,50.57
2018-04-14T09:39:12.987Z,43.03
2018-04-14T09:41:41.290Z,40.50
2018-04-14T09:44:09.542Z,45.70
2018-04-14T09:46:37.842Z,46.33
2018-04-14T09:49:06.126Z,42.93
2018-04-14T09:51:34.430Z,38.67
2018-04-14T09:54:02.698Z,38.50
2018-04-14T09:56:31.012Z,42.20
2018-04-14T09:58:59.288Z,40.00
2018-04-14T10:01:27.593Z,33.43
2018-04-14T10:03:58.443Z,33.13
2018-04-14T10:06:26.741Z,30.87
2018-04-14T10:08:56.541Z,32.30
2018-04-14T10:11:24.823Z,29.20
2018-04-14T10:13:53.098Z,26.10
2018-04-14T10:16:21.473Z,29.57
2018-04-14T10:18:49.759Z,32.30
2018-04-14T10:21:18.845Z,30.53
2018-04-14T10:23:47.122Z,26.67
2018-04-14T10:26:15.414Z,24.97
2018-04-14T10:28:43.773Z,26.77
2018-04-14T10:31:12.161Z,27.23
2018-04-14T10:33:40.549Z,25.67
2018-04-14T10:36:08.918Z,29.00
2018-04-14T10:38:37.203Z,26.77
2018-04-14T10:41:06.262Z,30.33
2018-04-14T10:43:34.751Z,26.07
2018-04-14T10:46:03.013Z,29.17
2018-04-14T10:48:31.303Z,25.83
2018-04-14T10:50:59.572Z,30.50
2018-04-14T10:53:27.859Z,26.03
2018-04-14T10:55:56.237Z,25.30
2018-04-14T10:58:24.609Z,27.27
2018-04-14T11:00:52.882Z,24.10
2018-04-14T11:03:21.188Z,23.00
2018-04-14T11:05:49.456Z,26.50
2018-04-14T11:08:17.759Z,25.37
2018-04-14T11:10:46.807Z,27.97
2018-04-14T11:13:15.101Z,27.63
2018-04-14T11:15:43.471Z,24.30
2018-04-14T11:18:11.856Z,23.33
2018-04-14T11:20:40.105Z,23.50
2018-04-14T11:23:08.410Z,26.40
2018-04-14T11:25:36.792Z,24.37
2018-04-14T11:28:05.080Z,25.30
2018-04-14T11:30:33.446Z,24.60
2018-04-14T11:33:01.934Z,20.57
2018-04-14T11:35:30.219Z,25.33
2018-04-14T11:37:58.465Z,24.03
2018-04-14T11:40:26.868Z,21.33
2018-04-14T11:42:55.241Z,21.60
2018-04-14T11:45:23.563Z,26.13
2018-04-14T11:47:51.843Z,24.03
2018-04-14T11:50:20.150Z,22.37
2018-04-14T11:52:48.425Z,24.10
2018-04-14T11:55:16.830Z,23.23
2018-04-14T11:57:45.100Z,24.47
2018-04-14T12:00:13.417Z,21.27
2018-04-14T12:02:41.675Z,27.03
2018-04-14T12:05:10.038Z,20.17
2018-04-14T12:07:38.422Z,22.30
2018-04-14T12:10:06.707Z,21.93
2018-04-14T12:12:34.970Z,21.20
2018-04-14T12:15:03.328Z,25.33
2018-04-14T12:17:31.642Z,22.67
2018-04-14T12:20:00.008Z,26.20
2018-04-14T12:22:28.280Z,24.83
2018-04-14T12:24:56.599Z,26.40
2018-04-14T12:27:25.662Z,26.73
2018-04-14T12:29:53.978Z,29.97
2018-04-14T12:32:23.047Z,29.63
2018-04-14T12:34:52.137Z,33.00
2018-04-14T12:37:20.430Z,29.07
2018-04-14T12:39:48.703Z,31.30
2018-04-14T12:42:17.004Z,29.13
2018-04-14T12:44:46.042Z,35.57
2018-04-14T12:47:14.342Z,30.60
2018-04-14T12:49:42.631Z,30.33
2018-04-14T12:52:11.095Z,33.70
2018-04-14T12:54:39.358Z,30.50
2018-04-14T12:57:07.665Z,31.30
2018-04-14T12:59:35.943Z,30.90
2018-04-14T13:02:04.267Z,29.73
2018-04-14T13:04:32.527Z,26.60
2018-04-14T13:07:01.678Z,33.17
2018-04-14T13:09:29.964Z,26.67
2018-04-14T13:11:58.265Z,29.40
2018-04-14T13:14:27.351Z,25.03
2018-04-14T13:16:55.619Z,26.50
2018-04-14T13:19:23.999Z,26.13
2018-04-14T13:21:52.372Z,24.90
2018-04-14T13:24:20.751Z,24.00
2018-04-14T13:26:49.041Z,23.27
2018-04-14T13:29:17.310Z,26.37
2018-04-14T13:31:45.678Z,27.00
2018-04-14T13:34:13.956Z,25.37
2018-04-14T13:36:42.259Z,29.27
2018-04-14T13:39:11.294Z,23.23
2018-04-14T13:41:39.589Z,23.70
2018-04-14T13:44:07.867Z,21.33
2018-04-14T13:46:36.134Z,17.27
2018-04-14T13:49:04.559Z,23.93
2018-04-14T13:51:32.823Z,22.07
2018-04-14T13:54:01.118Z,20.30
2018-04-14T13:56:30.162Z,25.80
2018-04-14T13:58:58.462Z,19.90
2018-04-14T14:01:26.722Z,20.77
2018-04-14T14:03:55.021Z,21.87
2018-04-14T14:06:23.299Z,23.60
2018-04-14T14:08:51.599Z,23.80
2018-04-14T14:11:19.867Z,19.70
2018-04-14T14:13:48.939Z,21.43
2018-04-14T14:16:17.212Z,21.67
2018-04-14T14:18:45.508Z,22.80
2018-04-14T14:21:13.884Z,21.80
2018-04-14T14:23:42.174Z,24.17
2018-04-14T14:26:11.963Z,21.73
2018-04-14T14:28:40.254Z,24.53
2018-04-14T14:31:09.034Z,23.70
2018-04-14T14:33:38.116Z,24.60
2018-04-14T14:36:06.441Z,21.23
2018-04-14T14:38:34.800Z,24.60
2018-04-14T14:41:03.075Z,26.13
2018-04-14T14:43:31.370Z,27.30
2018-04-14T14:45:59.960Z,23.93
2018-04-14T14:48:28.319Z,23.73
2018-04-14T14:50:56.584Z,26.50
2018-04-14T14:53:24.861Z,29.47
2018-04-14T14:55:53.160Z,29.60
2018-04-14T14:58:21.423Z,29.63
2018-04-14T15:00:49.719Z,31.97
2018-04-14T15:03:18.004Z,33.60
2018-04-14T15:05:46.350Z,33.83
2018-04-14T15:08:14.623Z,27.73
2018-04-14T15:10:43.025Z,32.53
2018-04-14T15:13:11.499Z,29.40
2018-04-14T15:15:39.814Z,27.40
2018-04-14T15:18:08.848Z,27.63
2018-04-14T15:20:37.176Z,31.00
2018-04-14T15:23:06.197Z,24.33
2018-04-14T15:25:34.556Z,25.03
2018-04-14T15:28:03.590Z,24.90
2018-04-14T15:30:31.889Z,26.10
2018-04-14T15:33:00.214Z,25.77
2018-04-14T15:35:28.628Z,26.33
2018-04-14T15:37:56.937Z,23.50
2018-04-14T15:40:25.255Z,27.10
2018-04-14T15:42:53.557Z,22.53
2018-04-14T15:45:21.967Z,24.50
2018-04-14T15:47:50.357Z,22.17
2018-04-14T15:50:18.782Z,24.20
2018-04-14T15:52:47.212Z,27.17
2018-04-14T15:55:15.604Z,23.67
2018-04-14T15:57:43.952Z,24.53
2018-04-14T16:00:12.285Z,23.47
2018-04-14T16:02:41.538Z,24.40
2018-04-14T16:05:10.337Z,24.17
2018-04-14T16:07:39.459Z,33.20
2018-04-14T16:10:08.537Z,33.70
2018-04-14T16:12:36.904Z,29.37
2018-04-14T16:15:05.155Z,34.90
2018-04-14T16:17:33.557Z,30.00
2018-04-14T16:20:02.783Z,32.87
2018-04-14T16:22:31.089Z,31.53
2018-04-14T16:24:59.359Z,35.97
2018-04-14T16:27:27.660Z,28.30
2018-04-14T16:29:55.935Z,36.80
2018-04-14T16:32:24.251Z,29.77
2018-04-14T16:34:52.532Z,31.87
2018-04-14T16:37:20.902Z,28.00
2018-04-14T16:39:49.156Z,25.10
2018-04-14T16:42:17.427Z,24.87
2018-04-14T16:44:45.735Z,26.80
2018-04-14T16:47:14.066Z,33.23
2018-04-14T16:49:42.361Z,29.73
2018-04-14T16:52:10.621Z,26.93
2018-04-14T16:54:38.927Z,23.87
2018-04-14T16:57:07.210Z,28.50
2018-04-14T16:59:36.270Z,26.73
2018-04-14T17:02:04.541Z,24.60
2018-04-14T17:04:32.880Z,28.27
2018-04-14T17:07:01.154Z,28.33
2018-04-14T17:09:30.962Z,29.40
2018-04-14T17:11:59.243Z,32.70
2018-04-14T17:14:27.546Z,24.83
2018-04-14T17:16:56.595Z,26.47
2018-04-14T17:19:24.890Z,33.20
2018-04-14T17:21:53.155Z,26.70
2018-04-14T17:24:21.453Z,26.47
2018-04-14T17:26:49.725Z,29.00
2018-04-14T17:29:18.016Z,31.10
2018-04-14T17:31:47.100Z,30.27
2018-04-14T17:34:15.475Z,35.00
2018-04-14T17:36:43.727Z,35.47
2018-04-14T17:39:12.047Z,40.07
2018-04-14T17:41:40.412Z,39.17
2018-04-14T17:44:08.686Z,45.17
2018-04-14T17:46:36.978Z,44.40
2018-04-14T17:49:05.234Z,42.57
2018-04-14T17:51:33.570Z,42.70
2018-04-14T17:54:01.847Z,44.30
2018-04-14T17:56:30.150Z,52.23
2018-04-14T17:58:58.418Z,47.33
2018-04-14T18:01:26.714Z,47.40
2018-04-14T18:03:55.028Z,41.80
2018-04-14T18:06:23.336Z,36.13
2018-04-14T18:08:51.627Z,47.80
2018-04-14T18:11:19.927Z,46.63
2018-04-14T18:13:48.224Z,43.73
2018-04-14T18:16:16.519Z,40.90
2018-04-14T18:18:45.575Z,43.90
2018-04-14T18:21:13.999Z,45.87
2018-04-14T18:23:42.273Z,43.67
2018-04-14T18:26:10.547Z,40.50
2018-04-14T18:28:39.333Z,47.97
2018-04-14T18:31:07.611Z,42.80
2018-04-14T18:33:35.928Z,49.07
2018-04-14T18:36:04.189Z,44.50
2018-04-14T18:38:33.311Z,52.70
2018-04-14T18:41:02.318Z,47.53
2018-04-14T18:43:31.256Z,46.83
2018-04-14T18:45:59.894Z,53.87
2018-04-14T18:48:28.453Z,72.73
2018-04-14T18:50:56.752Z,62.00
2018-04-14T18:53:25.034Z,93.93
2018-04-14T18:55:53.298Z,79.53
2018-04-14T18:58:21.619Z,90.50
2018-04-14T19:00:49.886Z,162.17
2018-04-14T19:03:18.191Z,163.57
2018-04-14T19:05:46.468Z,183.47
2018-04-14T19:08:14.828Z,152.73
2018-04-14T19:10:44.002Z,149.47
2018-04-14T19:13:12.415Z,151.47
2018-04-14T19:15:41.294Z,213.93
2018-04-14T19:18:09.683Z,187.57
2018-04-14T19:20:37.959Z,131.27
2018-04-14T19:23:06.310Z,118.70
2018-04-14T19:25:34.591Z,99.53
2018-04-14T19:28:02.907Z,79.17
2018-04-14T19:30:31.165Z,69.83
2018-04-14T19:32:59.543Z,71.23
2018-04-14T19:35:27.822Z,85.03
2018-04-14T19:37:56.151Z,75.43
2018-04-14T19:40:25.175Z,83.60
2018-04-14T19:42:53.483Z,143.43
2018-04-14T19:45:21.790Z,131.00
2018-04-14T19:47:50.064Z,130.33
2018-04-14T19:50:19.231Z,124.43
2018-04-14T19:52:47.507Z,113.60
2018-04-14T19:55:15.843Z,110.23
2018-04-14T19:57:44.107Z,101.50
2018-04-14T20:00:12.416Z,84.87
2018-04-14T20:02:40.694Z,72.37
2018-04-14T20:05:08.992Z,57.83
2018-04-14T20:07:37.267Z,59.63
2018-04-14T20:10:05.566Z,163.97
2018-04-14T20:12:34.606Z,86.60
2018-04-14T20:15:03.672Z,114.50
2018-04-14T20:17:32.707Z,101.57
2018-04-14T20:20:01.006Z,100.93
2018-04-14T20:22:29.300Z,95.47
2018-04-14T20:24:57.593Z,123.10
2018-04-14T20:27:26.630Z,147.60
2018-04-14T20:29:55.250Z,131.67
2018-04-14T20:32:23.517Z,142.00
2018-04-14T20:34:51.906Z,194.63
2018-04-14T20:37:20.193Z,195.50
2018-04-14T20:39:48.467Z,163.77
2018-04-14T20:42:16.777Z,196.00
2018-04-14T20:44:45.058Z,235.00
2018-04-14T20:47:13.371Z,196.00
2018-04-14T20:49:41.643Z,228.40
2018-04-14T20:52:09.962Z,217.77
2018-04-14T20:54:38.240Z,230.73
2018-04-14T20:57:07.521Z,220.53
2018-04-14T20:59:35.799Z,173.30
2018-04-14T21:02:04.099Z,156.20
2018-04-14T21:04:33.146Z,130.03
2018-04-14T21:07:01.436Z,123.47
2018-04-14T21:09:29.713Z,123.30
2018-04-14T21:11:58.034Z,146.70
2018-04-14T21:14:27.090Z,130.97
2018-04-14T21:16:55.471Z,108.63
2018-04-14T21:19:23.850Z,104.47
2018-04-14T21:21:52.151Z,74.87
2018-04-14T21:24:20.425Z,88.57
2018-04-14T21:26:48.832Z,99.93
2018-04-14T21:29:17.079Z,83.90
2018-04-14T21:31:45.474Z,77.53
2018-04-14T21:34:13.747Z,76.87
2018-04-14T21:36:42.818Z,74.67
2018-04-14T21:39:11.194Z,65.03
2018-04-14T21:41:39.454Z,68.43
2018-04-14T21:44:07.755Z,61.50
2018-04-14T21:46:36.031Z,63.97
2018-04-14T21:49:04.338Z,61.67
2018-04-14T21:51:33.391Z,60.47
2018-04-14T21:54:01.700Z,70.47
2018-04-14T21:56:29.958Z,56.70
2018-04-14T21:58:58.265Z,63.00
2018-04-14T22:01:27.314Z,68.03
2018-04-14T22:03:55.644Z,72.00
2018-04-14T22:06:24.681Z,58.43
2018-04-14T22:08:53.085Z,62.63
2018-04-14T22:11:21.338Z,69.30
2018-04-14T22:13:49.643Z,65.13
2018-04-14T22:16:17.906Z,69.37
2018-04-14T22:18:46.211Z,67.80
2018-04-14T22:21:14.686Z,80.30
2018-04-14T22:23:43.270Z,73.00
2018-04-14T22:26:13.056Z,64.57
2018-04-14T22:28:41.452Z,69.73
2018-04-14T22:31:09.835Z,64.37
2018-04-14T22:33:38.132Z,62.70
2018-04-14T22:36:06.488Z,66.60
2018-04-14T22:38:34.795Z,69.17
2018-04-14T22:41:03.963Z,73.70
2018-04-14T22:43:32.230Z,63.70
2018-04-14T22:46:00.644Z,69.63
2018-04-14T22:48:29.002Z,71.03
2018-04-14T22:50:57.282Z,69.50
2018-04-14T22:53:25.554Z,61.37
2018-04-14T22:55:53.929Z,76.40
2018-04-14T22:58:22.203Z,74.23
2018-04-14T23:00:50.585Z,70.03
2018-04-14T23:03:18.845Z,66.53
2018-04-14T23:05:47.963Z,75.87
2018-04-14T23:08:16.244Z,74.87
2018-04-14T23:10:44.545Z,73.50
2018-04-14T23:13:12.827Z,73.07
2018-04-14T23:15:41.992Z,71.97
2018-04-14T23:18:10.271Z,82.13
2018-04-14T23:20:38.566Z,72.30
2018-04-14T23:23:07.611Z,76.77
2018-04-14T23:25:35.921Z,86.00
2018-04-14T23:28:04.200Z,129.67
2018-04-14T23:30:32.503Z,128.50
2018-04-14T23:33:01.548Z,117.93
2018-04-14T23:35:29.865Z,124.60
2018-04-14T23:37:58.133Z,117.67
2018-04-14T23:40:26.445Z,97.63
2018-04-14T23:42:55.488Z,92.80
2018-04-14T23:45:23.774Z,97.90
2018-04-14T23:47:52.843Z,87.33
2018-04-14T23:50:21.121Z,77.87
2018-04-14T23:52:49.410Z,78.43
2018-04-14T23:55:17.701Z,71.53
2018-04-14T23:57:46.088Z,76.60
